Time;durP1;ratioP1;P1;durP2;ratioP2;P2;SDS_P1;SDS_P2;PMS_P1;PMS_P2;Temp;Humidity;BMP_temperature;BMP_pressure;BME280_temperature;BME280_humidity;BME280_pressure;Samples;Min_cycle;Max_cycle;Signal;HPM_P1;HPM_P2
2023/11/06 00:00:48;;;;;;;2.65;1.00;;;9.80;99.90;;;;;;4978074;28;20544;-60
2023/11/06 00:03:14;;;;;;;0.65;0.50;;;9.80;99.90;;;;;;4969408;28;20033;-60
2023/11/06 00:05:39;;;;;;;3.63;0.93;;;9.80;99.90;;;;;;4966715;28;20022;-61
2023/11/06 00:08:05;;;;;;;1.40;0.45;;;9.80;99.90;;;;;;5015130;28;20026;-59
2023/11/06 00:10:30;;;;;;;2.83;0.70;;;9.80;99.90;;;;;;4950184;28;20025;-60
2023/11/06 00:12:56;;;;;;;3.15;0.60;;;9.80;99.90;;;;;;4965828;28;20097;-67
2023/11/06 00:15:22;;;;;;;2.58;0.70;;;9.80;99.90;;;;;;4977545;28;20037;-62
2023/11/06 00:17:47;;;;;;;5.22;0.95;;;9.80;99.90;;;;;;4967781;28;21498;-59
2023/11/06 00:20:13;;;;;;;4.00;1.20;;;9.80;99.90;;;;;;5021801;28;20404;-57
2023/11/06 00:22:39;;;;;;;2.10;0.70;;;9.80;99.90;;;;;;4934807;28;20021;-60
2023/11/06 00:25:08;;;;;;;10.05;1.27;;;9.80;99.90;;;;;;4982568;28;20173;-57
2023/11/06 00:27:34;;;;;;;5.43;1.00;;;9.80;99.90;;;;;;4968908;28;20032;-56
2023/11/06 00:29:59;;;;;;;3.85;1.00;;;9.70;99.90;;;;;;4952059;28;20045;-54
2023/11/06 00:32:25;;;;;;;4.07;1.02;;;9.70;99.90;;;;;;5006098;28;20336;-54
2023/11/06 00:34:50;;;;;;;5.00;1.33;;;9.70;99.90;;;;;;5018892;28;20567;-54
2023/11/06 00:37:16;;;;;;;1.83;0.85;;;9.70;99.90;;;;;;4916647;28;21690;-55
2023/11/06 00:39:42;;;;;;;2.30;1.02;;;9.70;99.90;;;;;;4978234;28;20040;-56
2023/11/06 00:42:08;;;;;;;2.75;1.23;;;9.70;99.90;;;;;;4964926;28;20524;-62
2023/11/06 00:44:34;;;;;;;7.65;1.58;;;9.70;99.90;;;;;;4980621;28;20117;-59
2023/11/06 00:47:00;;;;;;;3.03;1.00;;;9.70;99.90;;;;;;4959125;28;20041;-59
2023/11/06 00:49:26;;;;;;;10.75;2.00;;;9.70;99.90;;;;;;4939475;28;20017;-57
2023/11/06 00:51:51;;;;;;;4.93;1.42;;;9.60;99.90;;;;;;4966078;28;20029;-58
2023/11/06 00:54:17;;;;;;;9.88;1.92;;;9.60;99.90;;;;;;5009456;28;20489;-60
2023/11/06 00:56:43;;;;;;;3.75;1.52;;;9.70;99.90;;;;;;4972178;28;21970;-62
2023/11/06 00:59:08;;;;;;;5.15;1.48;;;9.60;99.90;;;;;;5027238;28;20040;-59
2023/11/06 01:01:34;;;;;;;8.10;1.95;;;9.60;99.90;;;;;;4963298;28;20497;-59
2023/11/06 01:04:01;;;;;;;3.88;1.38;;;9.60;99.90;;;;;;4973983;28;20174;-59
2023/11/06 01:06:26;;;;;;;8.27;1.73;;;9.50;99.90;;;;;;4957236;28;20607;-57
2023/11/06 01:08:54;;;;;;;6.28;1.52;;;9.50;99.90;;;;;;4966228;28;21337;-58
2023/11/06 01:11:20;;;;;;;12.70;2.35;;;9.50;99.90;;;;;;4996648;28;20032;-56
2023/11/06 01:13:46;;;;;;;6.35;2.05;;;9.50;99.90;;;;;;4963475;28;20394;-55
2023/11/06 01:16:12;;;;;;;7.50;2.20;;;9.50;99.90;;;;;;4963453;28;20045;-58
2023/11/06 01:18:38;;;;;;;5.35;1.35;;;9.50;99.90;;;;;;4956357;28;20040;-53
2023/11/06 01:21:05;;;;;;;6.30;1.88;;;9.50;99.90;;;;;;5000080;28;20080;-56
2023/11/06 01:23:31;;;;;;;4.20;1.73;;;9.50;99.90;;;;;;4994438;28;20026;-60
2023/11/06 01:25:56;;;;;;;5.55;1.75;;;9.50;99.90;;;;;;4977074;28;20029;-52
2023/11/06 01:28:22;;;;;;;4.50;1.73;;;9.50;99.90;;;;;;4969996;28;20041;-53
2023/11/06 01:30:47;;;;;;;3.13;1.95;;;9.40;99.90;;;;;;4973724;28;20041;-57
2023/11/06 01:33:15;;;;;;;8.07;2.17;;;9.40;99.90;;;;;;5024798;28;20060;-59
2023/11/06 01:35:41;;;;;;;12.55;2.15;;;9.40;99.90;;;;;;4969423;28;20045;-56
2023/11/06 01:38:07;;;;;;;6.68;1.65;;;9.40;99.90;;;;;;4944683;28;20038;-53
2023/11/06 01:40:33;;;;;;;9.30;1.77;;;9.40;99.90;;;;;;4956953;28;20516;-57
2023/11/06 01:43:05;;;;;;;8.80;1.70;;;9.40;99.90;;;;;;4951788;28;20345;-59
2023/11/06 01:45:35;;;;;;;7.45;2.22;;;9.40;99.90;;;;;;4961346;28;20489;-57
2023/11/06 01:48:03;;;;;;;7.78;1.67;;;9.40;99.90;;;;;;4966980;28;21792;-55
2023/11/06 01:50:31;;;;;;;9.75;2.00;;;9.40;99.90;;;;;;4995248;28;20406;-56
2023/11/06 01:52:58;;;;;;;7.10;1.83;;;9.40;99.90;;;;;;4947353;28;20040;-55
2023/11/06 01:55:27;;;;;;;4.40;1.88;;;9.40;99.90;;;;;;4952709;28;20060;-54
2023/11/06 01:57:53;;;;;;;5.45;1.52;;;9.30;99.90;;;;;;5004712;28;20523;-55
2023/11/06 02:00:19;;;;;;;6.97;1.98;;;9.30;99.90;;;;;;4975535;28;20118;-55
2023/11/06 02:02:47;;;;;;;4.70;1.67;;;9.30;99.90;;;;;;4949228;28;20033;-55
2023/11/06 02:05:13;;;;;;;2.92;1.33;;;9.30;99.90;;;;;;4990866;28;20029;-58
2023/11/06 02:07:39;;;;;;;4.95;1.83;;;9.30;99.90;;;;;;4936113;28;20504;-54
2023/11/06 02:10:05;;;;;;;7.97;1.95;;;9.30;99.90;;;;;;4956470;28;20034;-57
2023/11/06 02:12:32;;;;;;;7.97;1.90;;;9.20;99.90;;;;;;4946538;28;20531;-58
2023/11/06 02:14:58;;;;;;;5.53;1.77;;;9.20;99.90;;;;;;4961765;28;21733;-58
2023/11/06 02:17:25;;;;;;;6.25;1.92;;;9.20;99.90;;;;;;5013493;28;20151;-56
2023/11/06 02:19:52;;;;;;;2.97;1.52;;;9.20;99.90;;;;;;4941105;28;20150;-54
2023/11/06 02:22:22;;;;;;;7.53;2.10;;;9.20;99.90;;;;;;4997297;28;20030;-55
2023/11/06 02:24:49;;;;;;;5.03;2.10;;;9.20;99.90;;;;;;4946713;28;20976;-54
2023/11/06 02:27:16;;;;;;;6.15;2.33;;;9.20;99.90;;;;;;4955683;28;20056;-58
2023/11/06 02:29:42;;;;;;;5.53;2.80;;;9.20;99.90;;;;;;4913872;28;20108;-59
2023/11/06 02:32:08;;;;;;;4.47;2.30;;;9.20;99.90;;;;;;4961132;28;20585;-54
2023/11/06 02:34:37;;;;;;;7.65;2.45;;;9.20;99.90;;;;;;5002175;22;20133;-54
2023/11/06 02:37:04;;;;;;;8.50;2.35;;;9.20;99.90;;;;;;4910682;28;20036;-50
2023/11/06 02:39:34;;;;;;;4.78;2.70;;;9.10;99.90;;;;;;4916335;28;20030;-52
2023/11/06 02:42:03;;;;;;;7.97;2.83;;;9.10;99.90;;;;;;4979534;28;20033;-49
2023/11/06 02:44:29;;;;;;;5.38;2.63;;;9.10;99.90;;;;;;4937046;28;20030;-51
2023/11/06 02:46:54;;;;;;;2.53;2.17;;;9.10;99.90;;;;;;4895209;28;20057;-48
2023/11/06 02:49:20;;;;;;;5.03;2.20;;;9.10;99.90;;;;;;4945659;28;20033;-47
2023/11/06 02:51:46;;;;;;;5.15;2.45;;;9.10;99.90;;;;;;4904412;28;20111;-51
2023/11/06 02:54:11;;;;;;;3.75;2.70;;;9.10;99.90;;;;;;4918937;28;20026;-52
2023/11/06 02:56:37;;;;;;;6.47;2.95;;;9.10;99.90;;;;;;4938441;28;20026;-49
2023/11/06 02:59:04;;;;;;;6.55;2.17;;;9.10;99.90;;;;;;4943099;28;20045;-52
2023/11/06 03:01:29;;;;;;;3.05;1.92;;;9.00;99.90;;;;;;4964207;28;21443;-57
2023/11/06 03:03:55;;;;;;;3.65;2.30;;;9.00;99.90;;;;;;4890778;28;20446;-50
2023/11/06 03:06:21;;;;;;;4.53;2.33;;;9.00;99.90;;;;;;4960465;28;20034;-51
2023/11/06 03:08:46;;;;;;;7.78;2.35;;;9.00;99.90;;;;;;4874556;28;20027;-50
2023/11/06 03:11:13;;;;;;;7.80;2.03;;;9.00;99.90;;;;;;4968623;28;20402;-52
2023/11/06 03:13:39;;;;;;;7.45;2.45;;;9.00;99.90;;;;;;4896665;28;20018;-49
2023/11/06 03:16:04;;;;;;;5.28;2.65;;;9.00;99.90;;;;;;4937180;28;20101;-51
2023/11/06 03:18:30;;;;;;;11.02;2.85;;;9.00;99.90;;;;;;4903489;28;20437;-59
2023/11/06 03:20:56;;;;;;;6.00;2.75;;;9.00;99.90;;;;;;4962497;28;20030;-53
2023/11/06 03:23:21;;;;;;;2.92;2.25;;;9.00;99.90;;;;;;4955752;28;20398;-55
2023/11/06 03:25:47;;;;;;;6.13;2.80;;;9.00;99.90;;;;;;4906833;28;20054;-52
2023/11/06 03:28:12;;;;;;;6.18;2.40;;;9.00;99.90;;;;;;4998576;28;20168;-56
2023/11/06 03:30:38;;;;;;;5.65;2.65;;;9.00;99.90;;;;;;4951604;28;20048;-51
2023/11/06 03:33:03;;;;;;;2.92;2.22;;;9.00;99.90;;;;;;4976227;28;20072;-51
2023/11/06 03:35:29;;;;;;;6.05;2.42;;;9.00;99.90;;;;;;4952956;28;20030;-51
2023/11/06 03:37:55;;;;;;;4.68;2.33;;;9.00;99.90;;;;;;4932583;28;20033;-59
2023/11/06 03:40:21;;;;;;;4.55;2.55;;;9.00;99.90;;;;;;4916579;28;20042;-52
2023/11/06 03:42:47;;;;;;;5.38;2.58;;;9.00;99.90;;;;;;4941199;28;20723;-54
2023/11/06 03:45:13;;;;;;;4.43;2.35;;;9.00;99.90;;;;;;4998300;28;20018;-53
2023/11/06 03:47:38;;;;;;;6.75;2.30;;;9.00;99.90;;;;;;4927952;28;20026;-55
2023/11/06 03:50:05;;;;;;;2.55;2.13;;;9.00;99.90;;;;;;4920963;28;20030;-56
2023/11/06 03:52:30;;;;;;;5.00;2.67;;;9.00;99.90;;;;;;5001379;28;20022;-53
2023/11/06 03:54:56;;;;;;;5.82;2.30;;;8.90;99.90;;;;;;4955115;28;20112;-53
2023/11/06 03:57:22;;;;;;;4.20;2.83;;;9.00;99.90;;;;;;4986287;28;20084;-58
2023/11/06 03:59:47;;;;;;;2.65;2.42;;;8.90;99.90;;;;;;4952550;28;20080;-54
2023/11/06 04:02:13;;;;;;;9.70;3.47;;;8.90;99.90;;;;;;4934401;28;20061;-56
2023/11/06 04:04:38;;;;;;;7.10;2.13;;;8.90;99.90;;;;;;4944972;28;20050;-53
2023/11/06 04:07:04;;;;;;;8.50;2.78;;;8.90;99.90;;;;;;4896049;28;20030;-54
2023/11/06 04:09:29;;;;;;;6.22;2.50;;;8.90;99.90;;;;;;4942159;28;20394;-59
2023/11/06 04:11:55;;;;;;;5.80;2.40;;;8.80;99.90;;;;;;4982474;28;20034;-52
2023/11/06 04:14:20;;;;;;;5.25;2.70;;;8.80;99.90;;;;;;4904250;28;21555;-54
2023/11/06 04:16:46;;;;;;;6.63;2.83;;;8.80;99.90;;;;;;4940786;28;20030;-52
2023/11/06 04:19:12;;;;;;;6.97;2.60;;;8.80;99.90;;;;;;4943306;28;20083;-54
2023/11/06 04:21:38;;;;;;;8.55;2.70;;;8.70;99.90;;;;;;4941573;28;20733;-50
2023/11/06 04:24:04;;;;;;;4.50;2.42;;;8.70;99.90;;;;;;5006490;28;20022;-54
2023/11/06 04:26:29;;;;;;;5.93;2.80;;;8.70;99.90;;;;;;4918186;28;20018;-53
2023/11/06 04:28:55;;;;;;;5.03;2.30;;;8.60;99.90;;;;;;4978841;28;20087;-59
2023/11/06 04:31:21;;;;;;;5.05;2.75;;;8.60;99.90;;;;;;4976984;28;20050;-55
2023/11/06 04:33:46;;;;;;;8.95;2.90;;;8.60;99.90;;;;;;4949974;28;20049;-53
2023/11/06 04:36:12;;;;;;;6.85;3.30;;;8.60;99.90;;;;;;4963293;28;20030;-53
2023/11/06 04:38:38;;;;;;;3.42;2.67;;;8.60;99.90;;;;;;4990290;28;20022;-53
2023/11/06 04:41:04;;;;;;;4.88;3.28;;;8.50;99.90;;;;;;4954064;28;20033;-51
2023/11/06 04:43:29;;;;;;;5.82;2.83;;;8.60;99.90;;;;;;4935752;28;21357;-51
2023/11/06 04:45:55;;;;;;;6.68;2.30;;;8.50;99.90;;;;;;4926419;28;21483;-51
2023/11/06 04:48:20;;;;;;;3.97;3.15;;;8.50;99.90;;;;;;4988972;28;20052;-50
2023/11/06 04:50:46;;;;;;;7.38;3.10;;;8.50;99.90;;;;;;4984244;28;20688;-51
2023/11/06 04:53:12;;;;;;;4.55;3.40;;;8.50;99.90;;;;;;4941482;28;20057;-53
2023/11/06 04:55:37;;;;;;;5.65;3.25;;;8.40;99.90;;;;;;4970348;28;20041;-53
2023/11/06 04:58:04;;;;;;;4.47;3.38;;;8.40;99.90;;;;;;4971454;28;20028;-53
2023/11/06 05:00:30;;;;;;;6.15;3.53;;;8.40;99.90;;;;;;4982598;28;20080;-54
2023/11/06 05:02:55;;;;;;;5.28;3.58;;;8.40;99.90;;;;;;4984639;28;20041;-49
2023/11/06 05:05:21;;;;;;;7.97;3.40;;;8.30;99.90;;;;;;4925376;28;20033;-49
2023/11/06 05:07:47;;;;;;;4.93;3.50;;;8.30;99.90;;;;;;4943832;28;20052;-53
2023/11/06 05:10:12;;;;;;;4.75;3.78;;;8.30;99.90;;;;;;4922838;28;20117;-52
2023/11/06 05:12:38;;;;;;;4.13;2.97;;;8.30;99.90;;;;;;4936706;28;20173;-58
2023/11/06 05:15:05;;;;;;;3.30;3.00;;;8.30;99.90;;;;;;4974209;28;20033;-56
2023/11/06 05:17:30;;;;;;;5.97;3.28;;;8.30;99.90;;;;;;4979633;28;20504;-52
2023/11/06 05:19:56;;;;;;;5.07;3.20;;;8.20;99.90;;;;;;4938259;28;20022;-52
2023/11/06 05:22:22;;;;;;;4.15;3.13;;;8.20;99.90;;;;;;4952957;28;20116;-58
2023/11/06 05:24:48;;;;;;;5.45;2.95;;;8.20;99.90;;;;;;4927445;28;20018;-53
2023/11/06 05:27:14;;;;;;;5.18;3.22;;;8.20;99.90;;;;;;4978370;28;20164;-53
2023/11/06 05:29:40;;;;;;;4.85;3.60;;;8.20;99.90;;;;;;4918060;28;20026;-50
2023/11/06 05:32:06;;;;;;;6.05;4.07;;;8.10;99.90;;;;;;4938849;28;20030;-52
2023/11/06 05:34:31;;;;;;;6.05;3.45;;;8.10;99.90;;;;;;4918915;28;20034;-52
2023/11/06 05:36:57;;;;;;;4.88;3.47;;;8.10;99.90;;;;;;4939970;28;21279;-50
2023/11/06 05:39:23;;;;;;;7.40;4.57;;;8.10;99.90;;;;;;4947000;28;20034;-54
2023/11/06 05:41:49;;;;;;;4.75;3.83;;;8.10;99.90;;;;;;4917936;28;20037;-49
2023/11/06 05:44:15;;;;;;;6.63;3.90;;;8.10;99.90;;;;;;4918885;28;20462;-52
2023/11/06 05:46:43;;;;;;;8.95;4.35;;;8.10;99.90;;;;;;4960195;28;20587;-52
2023/11/06 05:49:09;;;;;;;6.78;3.97;;;8.10;99.90;;;;;;4948204;28;20057;-53
2023/11/06 05:51:34;;;;;;;5.22;4.05;;;8.10;99.90;;;;;;4964530;28;20026;-54
2023/11/06 05:54:00;;;;;;;6.60;4.65;;;8.10;99.90;;;;;;4921940;28;20026;-53
2023/11/06 05:56:25;;;;;;;8.70;4.63;;;8.10;99.90;;;;;;4913963;28;20053;-51
2023/11/06 05:58:51;;;;;;;6.18;3.97;;;8.10;99.90;;;;;;4913214;28;20034;-53
2023/11/06 06:01:17;;;;;;;8.60;4.63;;;8.00;99.90;;;;;;4943422;28;20501;-52
2023/11/06 06:03:43;;;;;;;6.15;4.82;;;8.00;99.90;;;;;;4907427;28;20026;-58
2023/11/06 06:06:09;;;;;;;6.05;4.40;;;8.00;99.90;;;;;;4934539;28;20772;-53
2023/11/06 06:08:35;;;;;;;9.27;5.05;;;8.10;99.90;;;;;;4900437;28;20014;-52
2023/11/06 06:11:01;;;;;;;7.68;4.80;;;8.10;99.90;;;;;;4914779;28;20101;-51
2023/11/06 06:13:27;;;;;;;7.05;4.78;;;8.10;99.90;;;;;;4914881;28;20037;-58
2023/11/06 06:15:52;;;;;;;7.07;4.75;;;8.10;99.90;;;;;;4932134;28;21744;-54
2023/11/06 06:18:18;;;;;;;5.32;4.35;;;8.10;99.90;;;;;;4939021;28;20022;-51
2023/11/06 06:20:44;;;;;;;5.18;4.22;;;8.10;99.90;;;;;;4923132;28;20029;-53
2023/11/06 06:23:09;;;;;;;11.70;4.50;;;8.10;99.90;;;;;;4907611;28;20041;-58
2023/11/06 06:25:36;;;;;;;5.50;4.53;;;8.20;99.90;;;;;;4897256;28;20050;-50
2023/11/06 06:28:04;;;;;;;7.85;5.45;;;8.20;99.90;;;;;;4958909;28;20037;-48
2023/11/06 06:30:29;;;;;;;7.25;5.32;;;8.20;99.90;;;;;;4933885;28;20014;-53
2023/11/06 06:32:55;;;;;;;6.75;4.95;;;8.30;99.90;;;;;;4870989;28;20392;-58
2023/11/06 06:35:20;;;;;;;7.38;5.05;;;8.30;99.90;;;;;;4934352;28;20045;-48
2023/11/06 06:37:46;;;;;;;8.25;4.80;;;8.30;99.90;;;;;;4953232;28;20049;-49
2023/11/06 06:40:12;;;;;;;10.13;6.00;;;8.30;99.90;;;;;;4926613;28;20022;-50
2023/11/06 06:42:37;;;;;;;8.70;5.70;;;8.40;99.90;;;;;;4934260;28;20064;-51
2023/11/06 06:45:04;;;;;;;10.95;6.60;;;8.40;99.90;;;;;;4958283;28;20022;-50
2023/11/06 06:47:30;;;;;;;12.48;7.78;;;8.40;99.90;;;;;;4954689;28;20037;-47
2023/11/06 06:49:55;;;;;;;8.32;6.30;;;8.40;99.90;;;;;;4967002;28;20558;-52
2023/11/06 06:52:21;;;;;;;12.00;6.40;;;8.40;99.90;;;;;;4987878;28;20022;-49
2023/11/06 06:54:46;;;;;;;9.93;5.82;;;8.40;99.90;;;;;;4917060;28;20056;-47
2023/11/06 06:57:12;;;;;;;10.15;7.00;;;8.50;99.90;;;;;;4952326;28;20033;-48
2023/11/06 06:59:38;;;;;;;7.05;5.72;;;8.50;99.90;;;;;;4951680;28;20025;-52
2023/11/06 07:02:04;;;;;;;10.35;5.70;;;8.50;99.90;;;;;;4950912;28;20072;-52
2023/11/06 07:04:30;;;;;;;7.22;5.53;;;8.50;99.90;;;;;;4959975;28;20030;-57
2023/11/06 07:06:56;;;;;;;6.18;4.95;;;8.50;99.90;;;;;;4972344;28;20403;-51
2023/11/06 07:09:23;;;;;;;7.38;5.07;;;8.50;99.90;;;;;;4950749;28;20619;-50
2023/11/06 07:11:49;;;;;;;7.65;5.32;;;8.50;99.90;;;;;;4947597;28;20128;-49
2023/11/06 07:14:14;;;;;;;5.38;4.57;;;8.60;99.90;;;;;;4901531;28;20044;-50
2023/11/06 07:16:40;;;;;;;9.73;4.80;;;8.60;99.90;;;;;;4901706;28;20040;-54
2023/11/06 07:19:05;;;;;;;8.20;5.05;;;8.60;99.90;;;;;;4993942;28;20034;-53
2023/11/06 07:21:32;;;;;;;6.88;5.28;;;8.70;99.90;;;;;;4913678;28;20029;-52
2023/11/06 07:23:57;;;;;;;11.38;4.72;;;8.70;99.90;;;;;;4944370;28;20014;-49
2023/11/06 07:26:23;;;;;;;13.40;5.85;;;8.70;99.90;;;;;;4942733;28;20037;-48
2023/11/06 07:28:49;;;;;;;6.60;4.75;;;8.70;99.90;;;;;;4943664;28;21676;-50
2023/11/06 07:31:14;;;;;;;8.18;4.95;;;8.80;99.90;;;;;;4963554;28;20025;-55
2023/11/06 07:33:40;;;;;;;7.47;5.60;;;8.80;99.90;;;;;;4928810;28;20037;-47
2023/11/06 07:36:07;;;;;;;10.27;5.15;;;8.80;99.90;;;;;;4944295;28;20038;-51
2023/11/06 07:38:32;;;;;;;7.45;4.18;;;8.80;99.90;;;;;;4950381;28;20018;-52
2023/11/06 07:40:58;;;;;;;4.70;4.25;;;8.80;99.90;;;;;;4940606;28;20087;-51
2023/11/06 07:43:23;;;;;;;7.53;4.95;;;8.80;99.90;;;;;;4954830;28;20037;-58
2023/11/06 07:45:49;;;;;;;9.75;5.15;;;8.90;99.90;;;;;;4975087;28;20022;-49
2023/11/06 07:48:15;;;;;;;7.97;4.65;;;8.90;99.90;;;;;;4934954;28;20038;-50
2023/11/06 07:50:40;;;;;;;6.20;4.43;;;8.90;99.90;;;;;;4978454;28;20029;-48
2023/11/06 07:53:06;;;;;;;9.23;4.85;;;9.00;99.90;;;;;;4967351;28;20030;-49
2023/11/06 07:55:32;;;;;;;8.88;4.32;;;9.00;99.90;;;;;;4950870;28;20036;-52
2023/11/06 07:57:58;;;;;;;6.32;4.07;;;9.00;99.90;;;;;;4981449;28;20034;-48
2023/11/06 08:00:23;;;;;;;8.23;4.00;;;9.00;99.90;;;;;;4963871;28;20208;-47
2023/11/06 08:02:50;;;;;;;4.95;4.45;;;9.00;99.90;;;;;;4977182;28;20457;-47
2023/11/06 08:05:16;;;;;;;8.07;4.75;;;9.10;99.90;;;;;;4941446;28;20522;-47
2023/11/06 08:07:42;;;;;;;5.60;4.72;;;9.10;99.90;;;;;;4957344;28;20076;-49
2023/11/06 08:10:09;;;;;;;8.13;4.22;;;9.10;99.90;;;;;;5008336;28;20057;-47
2023/11/06 08:12:35;;;;;;;8.80;4.47;;;9.00;99.90;;;;;;4911829;28;20029;-50
2023/11/06 08:15:03;;;;;;;8.10;4.45;;;9.00;99.90;;;;;;4972165;28;20030;-47
2023/11/06 08:17:29;;;;;;;8.38;3.80;;;9.10;99.90;;;;;;4966767;28;20034;-49
2023/11/06 08:19:54;;;;;;;4.15;3.65;;;9.10;99.90;;;;;;4974639;28;21664;-47
2023/11/06 08:22:21;;;;;;;5.28;3.63;;;9.10;99.90;;;;;;4975714;28;20534;-52
2023/11/06 08:24:48;;;;;;;6.53;4.13;;;9.10;99.90;;;;;;4971148;28;20029;-48
2023/11/06 08:27:13;;;;;;;9.43;4.47;;;9.20;99.90;;;;;;4969167;28;20116;-52
2023/11/06 08:29:42;;;;;;;6.20;3.40;;;9.20;99.90;;;;;;4968618;28;20144;-50
2023/11/06 08:32:14;;;;;;;6.95;4.38;;;9.20;99.90;;;;;;4964804;28;20132;-49
2023/11/06 08:34:43;;;;;;;6.38;4.78;;;9.20;99.90;;;;;;4990576;22;20040;-83
2023/11/06 08:37:11;;;;;;;4.80;3.88;;;9.20;99.90;;;;;;4932562;28;20038;-84
2023/11/06 08:39:43;;;;;;;6.50;3.90;;;9.30;99.90;;;;;;4895299;28;20029;-83
2023/11/06 08:42:13;;;;;;;5.20;3.97;;;9.20;99.90;;;;;;4890793;28;20030;-85
2023/11/06 08:44:42;;;;;;;6.22;4.40;;;9.30;99.90;;;;;;4943422;28;20126;-82
2023/11/06 08:47:11;;;;;;;11.05;4.65;;;9.30;99.90;;;;;;4905370;28;20415;-83
2023/11/06 08:49:37;;;;;;;4.50;3.85;;;9.30;99.90;;;;;;4952020;28;20039;-83
2023/11/06 08:52:04;;;;;;;4.78;4.18;;;9.30;99.90;;;;;;4949182;28;20064;-81
2023/11/06 08:54:33;;;;;;;6.88;4.03;;;9.30;99.90;;;;;;4900435;28;20058;-83
2023/11/06 08:56:59;;;;;;;8.18;4.43;;;9.40;99.90;;;;;;4926202;28;20050;-84
2023/11/06 08:59:25;;;;;;;7.35;4.32;;;9.40;99.90;;;;;;4952424;28;20027;-84
2023/11/06 09:01:53;;;;;;;6.90;4.43;;;9.40;99.90;;;;;;4897837;28;20041;-83
2023/11/06 09:04:19;;;;;;;7.53;4.15;;;9.50;99.90;;;;;;4935706;28;20082;-83
2023/11/06 09:06:46;;;;;;;11.40;5.03;;;9.50;99.90;;;;;;4898490;28;20101;-83
2023/11/06 09:09:12;;;;;;;6.53;4.07;;;9.50;99.90;;;;;;4897111;28;20019;-82
2023/11/06 09:11:40;;;;;;;7.05;4.30;;;9.50;99.90;;;;;;4893122;28;20037;-83
2023/11/06 09:14:09;;;;;;;5.93;4.25;;;9.50;99.90;;;;;;4881857;28;21832;-82
2023/11/06 09:16:49;;;;;;;6.45;3.90;;;9.60;99.90;;;;;;4910388;28;20046;-85
2023/11/06 09:19:16;;;;;;;6.93;5.20;;;9.50;99.90;;;;;;4900371;28;20035;-84
2023/11/06 09:21:42;;;;;;;7.93;4.82;;;9.50;99.90;;;;;;4854648;28;20152;-82
2023/11/06 09:24:08;;;;;;;6.38;3.75;;;9.60;99.90;;;;;;4915759;28;20058;-82
2023/11/06 09:26:34;;;;;;;17.35;7.75;;;9.60;99.90;;;;;;4830806;28;20557;-83
2023/11/06 09:29:01;;;;;;;9.10;5.85;;;9.60;99.90;;;;;;4917015;28;20031;-83
2023/11/06 09:31:27;;;;;;;10.52;6.25;;;9.70;99.90;;;;;;4928134;28;20027;-82
2023/11/06 09:33:54;;;;;;;9.27;5.40;;;9.70;99.90;;;;;;4881928;28;20129;-83
2023/11/06 09:36:20;;;;;;;6.25;4.18;;;9.70;99.90;;;;;;4831175;28;20493;-83
2023/11/06 09:38:46;;;;;;;7.47;4.57;;;9.70;99.90;;;;;;4861887;28;21620;-82
2023/11/06 09:41:12;;;;;;;8.40;4.63;;;9.80;99.90;;;;;;4923446;28;20081;-82
2023/11/06 09:43:40;;;;;;;7.32;4.78;;;9.90;99.90;;;;;;4866217;28;20038;-83
2023/11/06 09:46:10;;;;;;;9.43;5.55;;;9.90;99.90;;;;;;4895413;28;20031;-82
2023/11/06 09:48:37;;;;;;;7.22;4.80;;;9.90;99.90;;;;;;4913696;28;20125;-81
2023/11/06 09:51:14;;;;;;;9.50;5.18;;;10.00;99.90;;;;;;4890449;28;20051;-83
2023/11/06 09:53:45;;;;;;;8.43;5.47;;;10.00;99.90;;;;;;4892764;28;20093;-84
2023/11/06 09:56:11;;;;;;;6.45;4.53;;;10.10;99.90;;;;;;4921190;28;20030;-81
2023/11/06 09:58:55;;;;;;;7.35;4.38;;;10.10;99.90;;;;;;4905816;28;20426;-83
2023/11/06 10:01:27;;;;;;;6.63;4.70;;;10.20;99.90;;;;;;4866025;28;20026;-83
2023/11/06 10:03:55;;;;;;;4.57;4.00;;;10.30;99.90;;;;;;4860701;28;20034;-82
2023/11/06 10:06:21;;;;;;;8.07;4.80;;;10.40;99.90;;;;;;4878982;28;20451;-82
2023/11/06 10:08:46;;;;;;;6.13;4.30;;;10.50;99.90;;;;;;4876401;28;20145;-83
2023/11/06 10:11:21;;;;;;;8.70;4.53;;;10.40;99.90;;;;;;4964570;28;20023;-82
2023/11/06 10:13:54;;;;;;;6.88;4.38;;;10.50;99.90;;;;;;4904516;28;20038;-82
2023/11/06 10:16:24;;;;;;;7.57;4.63;;;10.50;99.90;;;;;;4943160;28;20033;-81
2023/11/06 10:19:22;;;;;;;7.75;4.30;;;10.50;99.90;;;;;;4966632;28;20116;-82
2023/11/06 10:21:48;;;;;;;6.75;3.97;;;10.50;99.90;;;;;;4928986;28;20089;-83
2023/11/06 10:24:14;;;;;;;6.63;3.30;;;10.50;99.90;;;;;;4899360;28;20031;-81
2023/11/06 10:26:39;;;;;;;5.72;3.55;;;10.50;99.90;;;;;;4904065;28;20023;-81
2023/11/06 10:29:12;;;;;;;3.63;2.97;;;10.50;99.90;;;;;;4953102;28;20014;-82
2023/11/06 10:31:44;;;;;;;7.25;3.28;;;10.50;99.90;;;;;;4878921;28;20034;-82
2023/11/06 10:34:31;;;;;;;5.18;3.33;;;10.50;99.90;;;;;;4894625;28;20041;-82
2023/11/06 10:37:16;;;;;;;7.28;3.30;;;10.50;99.90;;;;;;4896100;28;20030;-84
2023/11/06 10:39:52;;;;;;;6.45;3.20;;;10.60;99.90;;;;;;4899430;28;20420;-82
2023/11/06 10:42:19;;;;;;;;;;;10.50;99.90;;;;;;4845866;28;20041;-82
2023/11/06 10:44:57;;;;;;;6.07;3.35;;;10.50;99.90;;;;;;4920645;28;20477;-81
2023/11/06 10:47:40;;;;;;;8.15;3.97;;;10.40;99.90;;;;;;4925098;28;20027;-82
2023/11/06 10:50:12;;;;;;;4.85;3.03;;;10.50;99.90;;;;;;4958429;28;20074;-81
2023/11/06 10:52:44;;;;;;;4.60;3.33;;;10.50;99.90;;;;;;4886584;28;20037;-82
2023/11/06 10:55:13;;;;;;;8.00;3.88;;;10.50;99.90;;;;;;4939827;28;20030;-83
2023/11/06 10:57:39;;;;;;;5.15;2.88;;;10.60;99.90;;;;;;4888667;28;20034;-80
2023/11/06 11:00:07;;;;;;;3.88;2.97;;;10.60;99.90;;;;;;4917570;28;20037;-82
2023/11/06 11:02:50;;;;;;;4.88;3.28;;;10.60;99.90;;;;;;4940867;28;20529;-81
2023/11/06 11:05:18;;;;;;;4.18;3.03;;;10.60;99.90;;;;;;4952452;28;20034;-81
2023/11/06 11:07:46;;;;;;;4.93;2.95;;;10.70;99.90;;;;;;4949785;28;20019;-82
2023/11/06 11:10:17;;;;;;;4.78;2.47;;;10.70;99.90;;;;;;4857477;28;20046;-82
2023/11/06 11:12:49;;;;;;;5.88;2.42;;;10.60;99.90;;;;;;4933392;28;20472;-84
2023/11/06 11:15:14;;;;;;;5.90;2.72;;;10.60;99.90;;;;;;4938346;28;20030;-82
2023/11/06 11:17:55;;;;;;;5.68;3.17;;;10.60;99.90;;;;;;4869465;28;20034;-82
2023/11/06 11:20:21;;;;;;;7.35;4.35;;;10.50;99.90;;;;;;4969279;28;20395;-83
2023/11/06 11:23:06;;;;;;;7.53;3.10;;;10.60;99.90;;;;;;4907593;28;20026;-83
2023/11/06 11:25:54;;;;;;;5.93;3.10;;;10.50;99.90;;;;;;4935034;28;20047;-82
2023/11/06 11:28:21;;;;;;;5.65;2.20;;;10.40;99.90;;;;;;4929282;28;20027;-82
2023/11/06 11:30:47;;;;;;;4.75;2.42;;;10.50;99.90;;;;;;4920459;28;20035;-81
2023/11/06 11:33:32;;;;;;;4.07;2.83;;;10.40;99.90;;;;;;4961808;28;20019;-82
2023/11/06 11:35:58;;;;;;;3.75;2.05;;;10.40;99.90;;;;;;4933422;28;21337;-83
2023/11/06 11:38:31;;;;;;;4.50;2.53;;;10.40;99.90;;;;;;4937994;28;20019;-83
2023/11/06 11:41:03;;;;;;;4.95;2.60;;;10.40;99.90;;;;;;4867152;28;20118;-82
2023/11/06 11:43:35;;;;;;;3.65;2.40;;;10.40;99.90;;;;;;4891237;28;20061;-83
2023/11/06 11:46:00;;;;;;;4.75;2.20;;;10.40;99.90;;;;;;4929242;28;20023;-83
2023/11/06 11:48:49;;;;;;;4.43;2.20;;;10.40;99.90;;;;;;4920574;28;20699;-82
2023/11/06 11:51:50;;;;;;;4.03;2.05;;;10.30;99.90;;;;;;4875859;28;20053;-82
2023/11/06 11:54:30;;;;;;;4.68;2.33;;;10.30;99.90;;;;;;4956350;28;20042;-83
2023/11/06 11:56:56;;;;;;;2.33;2.13;;;10.30;99.90;;;;;;4897770;28;21419;-82
2023/11/06 11:59:26;;;;;;;2.72;1.90;;;10.20;99.90;;;;;;4952355;28;20026;-84
2023/11/06 12:01:53;;;;;;;5.07;2.20;;;10.10;99.90;;;;;;4930567;28;20035;-83
2023/11/06 12:04:23;;;;;;;5.65;2.38;;;10.00;99.90;;;;;;4928330;28;20077;-85
2023/11/06 12:06:59;;;;;;;5.53;2.55;;;10.00;99.90;;;;;;4904828;28;20033;-84
2023/11/06 12:09:26;;;;;;;3.17;2.47;;;9.90;99.90;;;;;;4884203;28;20134;-84
2023/11/06 12:11:51;;;;;;;4.45;2.10;;;9.90;99.90;;;;;;4907062;28;20108;-84
2023/11/06 12:14:17;;;;;;;3.65;2.10;;;9.90;99.90;;;;;;4948341;28;20117;-85
2023/11/06 12:16:49;;;;;;;3.60;2.40;;;9.90;99.90;;;;;;4909738;28;20031;-83
2023/11/06 12:19:16;;;;;;;5.38;2.15;;;9.90;99.90;;;;;;4907105;28;20098;-85
2023/11/06 12:22:00;;;;;;;2.88;2.13;;;9.90;99.90;;;;;;4934213;28;20027;-85
2023/11/06 12:24:26;;;;;;;4.05;2.08;;;9.90;99.90;;;;;;4899475;28;20045;-84
2023/11/06 12:26:53;;;;;;;8.40;2.42;;;9.90;99.90;;;;;;4897467;28;20033;-83
2023/11/06 12:29:29;;;;;;;5.10;2.08;;;9.90;99.90;;;;;;4941722;28;20051;-85
2023/11/06 12:31:57;;;;;;;5.43;2.00;;;10.00;99.90;;;;;;4934777;28;20034;-84
2023/11/06 12:34:24;;;;;;;4.38;2.08;;;10.00;99.90;;;;;;4919287;28;20031;-84
2023/11/06 12:37:03;;;;;;;5.28;2.08;;;10.10;99.90;;;;;;4876853;28;21551;-83
2023/11/06 12:39:33;;;;;;;3.72;2.50;;;10.10;99.90;;;;;;4930694;28;20376;-84
2023/11/06 12:42:00;;;;;;;4.50;2.38;;;10.20;99.90;;;;;;4925045;28;21613;-83
2023/11/06 12:44:41;;;;;;;6.00;2.25;;;10.30;99.90;;;;;;4931118;28;20099;-83
2023/11/06 12:47:10;;;;;;;7.80;2.50;;;10.30;99.90;;;;;;4901137;28;20406;-84
2023/11/06 12:49:48;;;;;;;7.40;2.50;;;10.30;99.90;;;;;;4865935;28;20115;-83
2023/11/06 12:52:21;;;;;;;4.22;1.83;;;10.30;99.90;;;;;;4901646;28;20038;-83
2023/11/06 12:54:49;;;;;;;6.82;2.00;;;10.40;99.90;;;;;;4926806;28;20573;-83
2023/11/06 12:57:16;;;;;;;6.82;1.48;;;10.50;99.90;;;;;;4907913;28;20884;-82